sensor_id;sensor_type;location;lat;lon;timestamp;P1;durP1;ratioP1;P2;durP2;ratioP2
84144;SDS011;74264;48.988;12.040;2024-02-26T00:01:11;69.60;;;20.15;;
84144;SDS011;74264;48.988;12.040;2024-02-26T00:03:36;83.55;;;24.13;;
84144;SDS011;74264;48.988;12.040;2024-02-26T00:06:02;48.90;;;20.02;;
84144;SDS011;74264;48.988;12.040;2024-02-26T00:08:28;43.53;;;20.25;;
84144;SDS011;74264;48.988;12.040;2024-02-26T00:10:53;42.60;;;22.65;;
84144;SDS011;74264;48.988;12.040;2024-02-26T00:13:19;62.08;;;22.83;;
84144;SDS011;74264;48.988;12.040;2024-02-26T00:15:45;59.95;;;24.45;;
84144;SDS011;74264;48.988;12.040;2024-02-26T00:18:11;49.75;;;22.38;;
84144;SDS011;74264;48.988;12.040;2024-02-26T00:20:37;52.17;;;20.80;;
84144;SDS011;74264;48.988;12.040;2024-02-26T00:23:02;56.22;;;20.52;;
84144;SDS011;74264;48.988;12.040;2024-02-26T00:25:28;56.85;;;20.20;;
84144;SDS011;74264;48.988;12.040;2024-02-26T00:27:53;67.65;;;21.73;;
84144;SDS011;74264;48.988;12.040;2024-02-26T00:30:19;46.55;;;19.00;;
84144;SDS011;74264;48.988;12.040;2024-02-26T00:32:44;53.58;;;21.38;;
84144;SDS011;74264;48.988;12.040;2024-02-26T00:35:10;56.20;;;22.60;;
84144;SDS011;74264;48.988;12.040;2024-02-26T00:37:36;56.38;;;22.88;;
84144;SDS011;74264;48.988;12.040;2024-02-26T00:40:01;54.17;;;22.70;;
84144;SDS011;74264;48.988;12.040;2024-02-26T00:42:27;59.38;;;22.10;;
84144;SDS011;74264;48.988;12.040;2024-02-26T00:44:52;45.92;;;20.08;;
84144;SDS011;74264;48.988;12.040;2024-02-26T00:47:18;73.68;;;27.17;;
84144;SDS011;74264;48.988;12.040;2024-02-26T00:49:44;57.20;;;28.80;;
84144;SDS011;74264;48.988;12.040;2024-02-26T00:52:10;56.55;;;25.55;;
84144;SDS011;74264;48.988;12.040;2024-02-26T00:54:36;71.35;;;26.73;;
84144;SDS011;74264;48.988;12.040;2024-02-26T00:57:01;56.30;;;24.02;;
84144;SDS011;74264;48.988;12.040;2024-02-26T00:59:27;53.47;;;24.10;;
84144;SDS011;74264;48.988;12.040;2024-02-26T01:01:52;57.28;;;26.38;;
84144;SDS011;74264;48.988;12.040;2024-02-26T01:04:18;63.67;;;27.10;;
84144;SDS011;74264;48.988;12.040;2024-02-26T01:06:43;61.20;;;24.15;;
84144;SDS011;74264;48.988;12.040;2024-02-26T01:09:09;55.65;;;23.05;;
84144;SDS011;74264;48.988;12.040;2024-02-26T01:11:34;59.75;;;21.80;;
84144;SDS011;74264;48.988;12.040;2024-02-26T01:14:00;51.67;;;20.67;;
84144;SDS011;74264;48.988;12.040;2024-02-26T01:16:25;59.85;;;22.25;;
84144;SDS011;74264;48.988;12.040;2024-02-26T01:18:54;62.53;;;21.40;;
84144;SDS011;74264;48.988;12.040;2024-02-26T01:21:19;84.13;;;22.38;;
84144;SDS011;74264;48.988;12.040;2024-02-26T01:23:45;57.30;;;19.23;;
84144;SDS011;74264;48.988;12.040;2024-02-26T01:26:10;46.53;;;19.10;;
84144;SDS011;74264;48.988;12.040;2024-02-26T01:28:36;54.33;;;20.67;;
84144;SDS011;74264;48.988;12.040;2024-02-26T01:31:02;77.88;;;23.70;;
84144;SDS011;74264;48.988;12.040;2024-02-26T01:33:30;68.20;;;22.73;;
84144;SDS011;74264;48.988;12.040;2024-02-26T01:35:56;57.15;;;22.27;;
84144;SDS011;74264;48.988;12.040;2024-02-26T01:38:21;51.75;;;22.23;;
84144;SDS011;74264;48.988;12.040;2024-02-26T01:40:47;97.03;;;27.02;;
84144;SDS011;74264;48.988;12.040;2024-02-26T01:43:12;78.70;;;23.85;;
84144;SDS011;74264;48.988;12.040;2024-02-26T01:45:38;79.18;;;26.02;;
84144;SDS011;74264;48.988;12.040;2024-02-26T01:48:04;82.75;;;24.95;;
84144;SDS011;74264;48.988;12.040;2024-02-26T01:50:30;71.80;;;25.50;;
84144;SDS011;74264;48.988;12.040;2024-02-26T01:52:56;88.15;;;26.05;;
84144;SDS011;74264;48.988;12.040;2024-02-26T01:55:22;65.45;;;23.48;;
84144;SDS011;74264;48.988;12.040;2024-02-26T01:57:49;130.95;;;28.33;;
84144;SDS011;74264;48.988;12.040;2024-02-26T02:00:17;155.05;;;35.05;;
84144;SDS011;74264;48.988;12.040;2024-02-26T02:02:44;99.30;;;30.15;;
84144;SDS011;74264;48.988;12.040;2024-02-26T02:05:12;71.55;;;28.33;;
84144;SDS011;74264;48.988;12.040;2024-02-26T02:07:39;76.07;;;27.88;;
84144;SDS011;74264;48.988;12.040;2024-02-26T02:10:06;80.15;;;30.58;;
84144;SDS011;74264;48.988;12.040;2024-02-26T02:12:32;93.35;;;31.85;;
84144;SDS011;74264;48.988;12.040;2024-02-26T02:14:59;85.97;;;29.60;;
84144;SDS011;74264;48.988;12.040;2024-02-26T02:17:26;82.25;;;30.92;;
84144;SDS011;74264;48.988;12.040;2024-02-26T02:19:53;83.13;;;29.65;;
84144;SDS011;74264;48.988;12.040;2024-02-26T02:22:19;88.88;;;32.55;;
84144;SDS011;74264;48.988;12.040;2024-02-26T02:24:44;82.10;;;30.35;;
84144;SDS011;74264;48.988;12.040;2024-02-26T02:27:10;79.85;;;26.45;;
84144;SDS011;74264;48.988;12.040;2024-02-26T02:29:36;74.53;;;24.10;;
84144;SDS011;74264;48.988;12.040;2024-02-26T02:32:02;61.13;;;22.25;;
84144;SDS011;74264;48.988;12.040;2024-02-26T02:34:29;57.78;;;21.58;;
84144;SDS011;74264;48.988;12.040;2024-02-26T02:36:56;65.72;;;21.92;;
84144;SDS011;74264;48.988;12.040;2024-02-26T02:39:22;61.70;;;21.77;;
84144;SDS011;74264;48.988;12.040;2024-02-26T02:41:47;60.88;;;22.50;;
84144;SDS011;74264;48.988;12.040;2024-02-26T02:44:13;69.35;;;24.13;;
84144;SDS011;74264;48.988;12.040;2024-02-26T02:46:38;82.95;;;25.08;;
84144;SDS011;74264;48.988;12.040;2024-02-26T02:49:08;92.78;;;26.42;;
84144;SDS011;74264;48.988;12.040;2024-02-26T02:51:35;71.55;;;22.10;;
84144;SDS011;74264;48.988;12.040;2024-02-26T02:54:01;49.88;;;20.35;;
84144;SDS011;74264;48.988;12.040;2024-02-26T02:56:26;71.65;;;23.73;;
84144;SDS011;74264;48.988;12.040;2024-02-26T02:58:52;59.67;;;20.63;;
84144;SDS011;74264;48.988;12.040;2024-02-26T03:01:17;52.78;;;20.27;;
84144;SDS011;74264;48.988;12.040;2024-02-26T03:03:43;77.75;;;24.25;;
84144;SDS011;74264;48.988;12.040;2024-02-26T03:06:08;69.15;;;23.42;;
84144;SDS011;74264;48.988;12.040;2024-02-26T03:08:34;62.15;;;23.67;;
84144;SDS011;74264;48.988;12.040;2024-02-26T03:11:03;67.80;;;24.13;;
84144;SDS011;74264;48.988;12.040;2024-02-26T03:13:29;81.57;;;25.75;;
84144;SDS011;74264;48.988;12.040;2024-02-26T03:15:55;74.25;;;25.42;;
84144;SDS011;74264;48.988;12.040;2024-02-26T03:18:20;65.80;;;24.30;;
84144;SDS011;74264;48.988;12.040;2024-02-26T03:20:46;55.00;;;22.35;;
84144;SDS011;74264;48.988;12.040;2024-02-26T03:23:11;75.60;;;25.63;;
84144;SDS011;74264;48.988;12.040;2024-02-26T03:25:41;66.50;;;26.35;;
84144;SDS011;74264;48.988;12.040;2024-02-26T03:28:11;63.58;;;23.23;;
84144;SDS011;74264;48.988;12.040;2024-02-26T03:30:38;60.97;;;23.15;;
84144;SDS011;74264;48.988;12.040;2024-02-26T03:33:03;60.90;;;20.60;;
84144;SDS011;74264;48.988;12.040;2024-02-26T03:35:29;65.20;;;22.65;;
84144;SDS011;74264;48.988;12.040;2024-02-26T03:37:55;57.80;;;21.30;;
84144;SDS011;74264;48.988;12.040;2024-02-26T03:40:20;61.38;;;24.88;;
84144;SDS011;74264;48.988;12.040;2024-02-26T03:42:46;69.82;;;23.90;;
84144;SDS011;74264;48.988;12.040;2024-02-26T03:45:11;64.22;;;23.63;;
84144;SDS011;74264;48.988;12.040;2024-02-26T03:47:37;70.80;;;21.65;;
84144;SDS011;74264;48.988;12.040;2024-02-26T03:50:05;57.30;;;21.50;;
84144;SDS011;74264;48.988;12.040;2024-02-26T03:52:32;57.42;;;23.77;;
84144;SDS011;74264;48.988;12.040;2024-02-26T03:54:58;60.17;;;22.52;;
84144;SDS011;74264;48.988;12.040;2024-02-26T03:57:23;59.42;;;21.73;;
84144;SDS011;74264;48.988;12.040;2024-02-26T03:59:49;60.17;;;23.38;;
84144;SDS011;74264;48.988;12.040;2024-02-26T04:02:15;56.95;;;22.95;;
84144;SDS011;74264;48.988;12.040;2024-02-26T04:04:41;55.72;;;20.95;;
84144;SDS011;74264;48.988;12.040;2024-02-26T04:07:07;46.15;;;18.05;;
84144;SDS011;74264;48.988;12.040;2024-02-26T04:09:32;45.97;;;18.65;;
84144;SDS011;74264;48.988;12.040;2024-02-26T04:11:58;63.70;;;20.73;;
84144;SDS011;74264;48.988;12.040;2024-02-26T04:14:24;61.08;;;22.42;;
84144;SDS011;74264;48.988;12.040;2024-02-26T04:16:49;67.85;;;23.95;;
84144;SDS011;74264;48.988;12.040;2024-02-26T04:19:17;70.95;;;28.67;;
84144;SDS011;74264;48.988;12.040;2024-02-26T04:21:43;86.18;;;36.10;;
84144;SDS011;74264;48.988;12.040;2024-02-26T04:24:09;66.30;;;22.58;;
84144;SDS011;74264;48.988;12.040;2024-02-26T04:26:34;67.50;;;23.83;;
84144;SDS011;74264;48.988;12.040;2024-02-26T04:29:00;63.60;;;21.95;;
84144;SDS011;74264;48.988;12.040;2024-02-26T04:31:26;53.58;;;23.05;;
84144;SDS011;74264;48.988;12.040;2024-02-26T04:33:52;57.85;;;21.23;;
84144;SDS011;74264;48.988;12.040;2024-02-26T04:36:17;51.50;;;20.50;;
84144;SDS011;74264;48.988;12.040;2024-02-26T04:38:43;50.10;;;20.77;;
84144;SDS011;74264;48.988;12.040;2024-02-26T04:41:09;74.07;;;24.20;;
84144;SDS011;74264;48.988;12.040;2024-02-26T04:43:35;60.30;;;23.45;;
84144;SDS011;74264;48.988;12.040;2024-02-26T04:46:09;57.22;;;22.63;;
84144;SDS011;74264;48.988;12.040;2024-02-26T04:48:35;48.97;;;19.15;;
84144;SDS011;74264;48.988;12.040;2024-02-26T04:51:02;50.47;;;20.42;;
84144;SDS011;74264;48.988;12.040;2024-02-26T04:53:28;51.85;;;20.40;;
84144;SDS011;74264;48.988;12.040;2024-02-26T04:55:54;49.50;;;19.83;;
84144;SDS011;74264;48.988;12.040;2024-02-26T04:58:19;52.20;;;19.55;;
84144;SDS011;74264;48.988;12.040;2024-02-26T05:00:45;49.03;;;18.77;;
84144;SDS011;74264;48.988;12.040;2024-02-26T05:03:11;59.17;;;21.98;;
84144;SDS011;74264;48.988;12.040;2024-02-26T05:05:41;71.68;;;25.30;;
84144;SDS011;74264;48.988;12.040;2024-02-26T05:08:09;65.97;;;23.13;;
84144;SDS011;74264;48.988;12.040;2024-02-26T05:10:36;52.78;;;20.08;;
84144;SDS011;74264;48.988;12.040;2024-02-26T05:13:05;53.67;;;20.58;;
84144;SDS011;74264;48.988;12.040;2024-02-26T05:15:31;48.92;;;19.25;;
84144;SDS011;74264;48.988;12.040;2024-02-26T05:17:57;48.78;;;18.67;;
84144;SDS011;74264;48.988;12.040;2024-02-26T05:20:23;46.75;;;18.35;;
84144;SDS011;74264;48.988;12.040;2024-02-26T05:22:48;43.05;;;18.25;;
84144;SDS011;74264;48.988;12.040;2024-02-26T05:25:15;48.88;;;18.33;;
84144;SDS011;74264;48.988;12.040;2024-02-26T05:27:41;50.60;;;19.80;;
84144;SDS011;74264;48.988;12.040;2024-02-26T05:30:07;45.03;;;17.92;;
84144;SDS011;74264;48.988;12.040;2024-02-26T05:32:33;57.42;;;19.55;;
84144;SDS011;74264;48.988;12.040;2024-02-26T05:34:58;50.28;;;19.63;;
84144;SDS011;74264;48.988;12.040;2024-02-26T05:37:24;45.38;;;20.45;;
84144;SDS011;74264;48.988;12.040;2024-02-26T05:39:50;47.60;;;18.48;;
84144;SDS011;74264;48.988;12.040;2024-02-26T05:42:15;51.47;;;20.50;;
84144;SDS011;74264;48.988;12.040;2024-02-26T05:44:41;42.17;;;18.77;;
84144;SDS011;74264;48.988;12.040;2024-02-26T05:47:06;50.58;;;19.42;;
84144;SDS011;74264;48.988;12.040;2024-02-26T05:49:32;53.88;;;19.40;;
84144;SDS011;74264;48.988;12.040;2024-02-26T05:51:59;55.70;;;21.13;;
84144;SDS011;74264;48.988;12.040;2024-02-26T05:54:24;44.70;;;18.63;;
84144;SDS011;74264;48.988;12.040;2024-02-26T05:56:50;41.55;;;17.70;;
84144;SDS011;74264;48.988;12.040;2024-02-26T05:59:16;48.70;;;18.10;;
84144;SDS011;74264;48.988;12.040;2024-02-26T06:01:41;39.45;;;17.15;;
84144;SDS011;74264;48.988;12.040;2024-02-26T06:04:07;46.78;;;17.58;;
84144;SDS011;74264;48.988;12.040;2024-02-26T06:06:32;52.15;;;21.55;;
84144;SDS011;74264;48.988;12.040;2024-02-26T06:08:58;44.47;;;18.15;;
84144;SDS011;74264;48.988;12.040;2024-02-26T06:11:24;47.72;;;18.23;;
84144;SDS011;74264;48.988;12.040;2024-02-26T06:13:49;41.78;;;17.10;;
84144;SDS011;74264;48.988;12.040;2024-02-26T06:16:15;47.80;;;20.42;;
84144;SDS011;74264;48.988;12.040;2024-02-26T06:18:41;41.13;;;17.10;;
84144;SDS011;74264;48.988;12.040;2024-02-26T06:21:09;37.67;;;16.80;;
84144;SDS011;74264;48.988;12.040;2024-02-26T06:23:35;38.38;;;17.70;;
84144;SDS011;74264;48.988;12.040;2024-02-26T06:26:01;42.22;;;17.35;;
84144;SDS011;74264;48.988;12.040;2024-02-26T06:28:27;31.70;;;15.85;;
84144;SDS011;74264;48.988;12.040;2024-02-26T06:30:55;32.90;;;15.18;;
84144;SDS011;74264;48.988;12.040;2024-02-26T06:33:21;23.48;;;12.60;;
84144;SDS011;74264;48.988;12.040;2024-02-26T06:35:47;33.35;;;13.35;;
84144;SDS011;74264;48.988;12.040;2024-02-26T06:38:12;28.10;;;13.55;;
84144;SDS011;74264;48.988;12.040;2024-02-26T06:40:39;27.70;;;12.68;;
84144;SDS011;74264;48.988;12.040;2024-02-26T06:43:05;30.45;;;14.95;;
84144;SDS011;74264;48.988;12.040;2024-02-26T06:45:31;27.00;;;12.98;;
84144;SDS011;74264;48.988;12.040;2024-02-26T06:47:56;23.13;;;12.18;;
84144;SDS011;74264;48.988;12.040;2024-02-26T06:50:22;21.63;;;10.45;;
84144;SDS011;74264;48.988;12.040;2024-02-26T06:52:49;22.15;;;11.80;;
84144;SDS011;74264;48.988;12.040;2024-02-26T06:55:14;24.83;;;13.05;;
84144;SDS011;74264;48.988;12.040;2024-02-26T06:57:40;28.80;;;14.38;;
84144;SDS011;74264;48.988;12.040;2024-02-26T07:00:05;33.33;;;13.70;;
84144;SDS011;74264;48.988;12.040;2024-02-26T07:02:31;31.25;;;14.57;;
84144;SDS011;74264;48.988;12.040;2024-02-26T07:04:57;26.45;;;13.45;;
84144;SDS011;74264;48.988;12.040;2024-02-26T07:07:23;27.02;;;12.45;;
84144;SDS011;74264;48.988;12.040;2024-02-26T07:09:49;23.73;;;12.40;;
84144;SDS011;74264;48.988;12.040;2024-02-26T07:12:15;26.92;;;12.82;;
84144;SDS011;74264;48.988;12.040;2024-02-26T07:14:41;35.92;;;13.70;;
84144;SDS011;74264;48.988;12.040;2024-02-26T07:17:07;29.83;;;12.52;;
84144;SDS011;74264;48.988;12.040;2024-02-26T07:19:33;24.27;;;12.95;;
84144;SDS011;74264;48.988;12.040;2024-02-26T07:21:59;29.70;;;12.52;;
84144;SDS011;74264;48.988;12.040;2024-02-26T07:24:28;26.85;;;11.10;;
84144;SDS011;74264;48.988;12.040;2024-02-26T07:26:53;27.98;;;11.50;;
84144;SDS011;74264;48.988;12.040;2024-02-26T07:29:22;20.25;;;10.60;;
84144;SDS011;74264;48.988;12.040;2024-02-26T07:31:48;17.17;;;9.68;;
84144;SDS011;74264;48.988;12.040;2024-02-26T07:34:13;14.90;;;9.00;;
84144;SDS011;74264;48.988;12.040;2024-02-26T07:36:39;16.25;;;9.52;;
84144;SDS011;74264;48.988;12.040;2024-02-26T07:39:05;14.25;;;8.23;;
84144;SDS011;74264;48.988;12.040;2024-02-26T07:41:31;14.00;;;8.55;;
84144;SDS011;74264;48.988;12.040;2024-02-26T07:43:56;10.70;;;5.97;;
84144;SDS011;74264;48.988;12.040;2024-02-26T07:46:22;10.00;;;7.15;;
84144;SDS011;74264;48.988;12.040;2024-02-26T07:48:47;10.02;;;5.32;;
84144;SDS011;74264;48.988;12.040;2024-02-26T07:51:13;8.80;;;5.53;;
84144;SDS011;74264;48.988;12.040;2024-02-26T07:53:40;9.57;;;5.88;;
84144;SDS011;74264;48.988;12.040;2024-02-26T07:56:06;9.30;;;5.70;;
84144;SDS011;74264;48.988;12.040;2024-02-26T07:58:34;8.35;;;4.95;;
84144;SDS011;74264;48.988;12.040;2024-02-26T08:01:00;6.10;;;4.53;;
84144;SDS011;74264;48.988;12.040;2024-02-26T08:03:26;6.03;;;4.72;;
84144;SDS011;74264;48.988;12.040;2024-02-26T08:05:52;8.75;;;5.47;;
84144;SDS011;74264;48.988;12.040;2024-02-26T08:08:17;11.13;;;6.05;;
84144;SDS011;74264;48.988;12.040;2024-02-26T08:10:43;10.02;;;5.30;;
84144;SDS011;74264;48.988;12.040;2024-02-26T08:13:09;16.52;;;5.70;;
84144;SDS011;74264;48.988;12.040;2024-02-26T08:15:35;6.00;;;5.40;;
84144;SDS011;74264;48.988;12.040;2024-02-26T08:18:02;11.25;;;5.20;;
84144;SDS011;74264;48.988;12.040;2024-02-26T08:20:29;8.23;;;5.45;;
84144;SDS011;74264;48.988;12.040;2024-02-26T08:22:55;6.95;;;5.93;;
84144;SDS011;74264;48.988;12.040;2024-02-26T08:25:21;8.65;;;5.00;;
84144;SDS011;74264;48.988;12.040;2024-02-26T08:27:47;8.45;;;5.78;;
84144;SDS011;74264;48.988;12.040;2024-02-26T08:30:13;10.45;;;5.55;;
84144;SDS011;74264;48.988;12.040;2024-02-26T08:32:45;7.10;;;5.47;;
84144;SDS011;74264;48.988;12.040;2024-02-26T08:35:14;5.87;;;5.27;;
84144;SDS011;74264;48.988;12.040;2024-02-26T08:37:40;8.10;;;5.70;;
84144;SDS011;74264;48.988;12.040;2024-02-26T08:40:06;19.42;;;6.72;;
84144;SDS011;74264;48.988;12.040;2024-02-26T08:42:32;7.13;;;4.88;;
84144;SDS011;74264;48.988;12.040;2024-02-26T08:44:57;7.60;;;5.20;;
84144;SDS011;74264;48.988;12.040;2024-02-26T08:47:25;8.15;;;5.15;;
84144;SDS011;74264;48.988;12.040;2024-02-26T08:49:51;8.48;;;5.70;;
84144;SDS011;74264;48.988;12.040;2024-02-26T08:52:17;6.50;;;4.97;;
84144;SDS011;74264;48.988;12.040;2024-02-26T08:54:43;7.20;;;5.05;;
84144;SDS011;74264;48.988;12.040;2024-02-26T08:57:08;6.55;;;4.82;;
84144;SDS011;74264;48.988;12.040;2024-02-26T08:59:35;14.07;;;5.13;;
84144;SDS011;74264;48.988;12.040;2024-02-26T09:02:00;7.60;;;4.68;;
84144;SDS011;74264;48.988;12.040;2024-02-26T09:04:26;7.22;;;5.13;;
84144;SDS011;74264;48.988;12.040;2024-02-26T09:06:52;5.43;;;4.00;;
84144;SDS011;74264;48.988;12.040;2024-02-26T09:09:18;6.90;;;4.65;;
84144;SDS011;74264;48.988;12.040;2024-02-26T09:11:43;8.02;;;5.05;;
84144;SDS011;74264;48.988;12.040;2024-02-26T09:14:09;11.00;;;4.90;;
84144;SDS011;74264;48.988;12.040;2024-02-26T09:16:35;5.10;;;4.20;;
84144;SDS011;74264;48.988;12.040;2024-02-26T09:19:01;7.05;;;4.10;;
84144;SDS011;74264;48.988;12.040;2024-02-26T09:21:28;6.72;;;3.65;;
84144;SDS011;74264;48.988;12.040;2024-02-26T09:23:54;3.70;;;3.22;;
84144;SDS011;74264;48.988;12.040;2024-02-26T09:26:19;3.13;;;2.80;;
84144;SDS011;74264;48.988;12.040;2024-02-26T09:28:45;4.07;;;3.45;;
84144;SDS011;74264;48.988;12.040;2024-02-26T09:31:11;5.05;;;4.25;;
84144;SDS011;74264;48.988;12.040;2024-02-26T09:33:36;5.28;;;3.67;;
84144;SDS011;74264;48.988;12.040;2024-02-26T09:36:03;3.60;;;2.95;;
84144;SDS011;74264;48.988;12.040;2024-02-26T09:38:29;8.05;;;3.22;;
84144;SDS011;74264;48.988;12.040;2024-02-26T09:40:56;8.77;;;2.85;;
84144;SDS011;74264;48.988;12.040;2024-02-26T09:43:23;5.47;;;2.92;;
84144;SDS011;74264;48.988;12.040;2024-02-26T09:45:53;5.88;;;3.08;;
84144;SDS011;74264;48.988;12.040;2024-02-26T09:48:19;8.85;;;2.90;;
84144;SDS011;74264;48.988;12.040;2024-02-26T09:50:45;11.13;;;3.45;;
84144;SDS011;74264;48.988;12.040;2024-02-26T09:53:12;12.10;;;3.08;;
84144;SDS011;74264;48.988;12.040;2024-02-26T09:55:40;3.47;;;3.10;;
84144;SDS011;74264;48.988;12.040;2024-02-26T09:58:06;4.97;;;3.40;;
84144;SDS011;74264;48.988;12.040;2024-02-26T10:00:32;4.70;;;3.35;;
84144;SDS011;74264;48.988;12.040;2024-02-26T10:03:04;11.02;;;2.88;;
84144;SDS011;74264;48.988;12.040;2024-02-26T10:05:32;4.63;;;2.72;;
84144;SDS011;74264;48.988;12.040;2024-02-26T10:08:00;4.80;;;3.53;;
84144;SDS011;74264;48.988;12.040;2024-02-26T10:10:28;4.00;;;3.22;;
84144;SDS011;74264;48.988;12.040;2024-02-26T10:12:54;3.67;;;3.08;;
84144;SDS011;74264;48.988;12.040;2024-02-26T10:15:20;3.03;;;2.83;;
84144;SDS011;74264;48.988;12.040;2024-02-26T10:17:46;8.65;;;2.72;;
84144;SDS011;74264;48.988;12.040;2024-02-26T10:20:15;4.25;;;2.60;;
84144;SDS011;74264;48.988;12.040;2024-02-26T10:22:48;3.22;;;2.90;;
84144;SDS011;74264;48.988;12.040;2024-02-26T10:25:14;4.32;;;2.40;;
84144;SDS011;74264;48.988;12.040;2024-02-26T10:27:41;2.60;;;2.15;;
84144;SDS011;74264;48.988;12.040;2024-02-26T10:32:49;3.22;;;2.45;;
84144;SDS011;74264;48.988;12.040;2024-02-26T10:35:15;5.80;;;2.53;;
84144;SDS011;74264;48.988;12.040;2024-02-26T10:37:43;3.17;;;2.45;;
84144;SDS011;74264;48.988;12.040;2024-02-26T10:40:12;2.67;;;2.35;;
84144;SDS011;74264;48.988;12.040;2024-02-26T10:42:38;4.40;;;1.92;;
84144;SDS011;74264;48.988;12.040;2024-02-26T10:45:05;2.10;;;1.92;;
84144;SDS011;74264;48.988;12.040;2024-02-26T10:47:31;2.65;;;2.05;;
84144;SDS011;74264;48.988;12.040;2024-02-26T10:49:59;2.53;;;2.30;;
84144;SDS011;74264;48.988;12.040;2024-02-26T10:52:26;3.58;;;2.28;;
84144;SDS011;74264;48.988;12.040;2024-02-26T10:54:54;2.08;;;1.88;;
84144;SDS011;74264;48.988;12.040;2024-02-26T10:57:23;2.60;;;2.03;;
84144;SDS011;74264;48.988;12.040;2024-02-26T10:59:50;2.15;;;1.95;;
84144;SDS011;74264;48.988;12.040;2024-02-26T11:02:18;2.50;;;2.08;;
84144;SDS011;74264;48.988;12.040;2024-02-26T11:04:46;3.58;;;2.20;;
84144;SDS011;74264;48.988;12.040;2024-02-26T11:07:11;3.33;;;2.33;;
84144;SDS011;74264;48.988;12.040;2024-02-26T11:09:38;7.03;;;2.30;;
84144;SDS011;74264;48.988;12.040;2024-02-26T11:12:10;2.67;;;2.13;;
84144;SDS011;74264;48.988;12.040;2024-02-26T11:14:38;2.15;;;1.98;;
84144;SDS011;74264;48.988;12.040;2024-02-26T11:17:07;2.58;;;2.28;;
84144;SDS011;74264;48.988;12.040;2024-02-26T11:19:34;2.35;;;1.80;;
84144;SDS011;74264;48.988;12.040;2024-02-26T11:22:01;2.55;;;2.15;;
84144;SDS011;74264;48.988;12.040;2024-02-26T11:24:27;3.78;;;1.90;;
84144;SDS011;74264;48.988;12.040;2024-02-26T11:26:57;1.70;;;1.60;;
84144;SDS011;74264;48.988;12.040;2024-02-26T11:29:34;2.88;;;1.88;;
84144;SDS011;74264;48.988;12.040;2024-02-26T11:32:05;3.00;;;2.15;;
84144;SDS011;74264;48.988;12.040;2024-02-26T11:34:31;1.90;;;1.80;;
84144;SDS011;74264;48.988;12.040;2024-02-26T11:36:57;1.90;;;1.52;;
84144;SDS011;74264;48.988;12.040;2024-02-26T11:39:36;5.32;;;1.75;;
84144;SDS011;74264;48.988;12.040;2024-02-26T11:42:08;9.10;;;2.00;;
84144;SDS011;74264;48.988;12.040;2024-02-26T11:44:36;10.93;;;1.88;;
84144;SDS011;74264;48.988;12.040;2024-02-26T11:47:11;2.15;;;2.00;;
84144;SDS011;74264;48.988;12.040;2024-02-26T11:49:38;2.50;;;2.00;;
84144;SDS011;74264;48.988;12.040;2024-02-26T11:52:05;11.65;;;1.90;;
84144;SDS011;74264;48.988;12.040;2024-02-26T11:54:49;1.52;;;1.42;;
84144;SDS011;74264;48.988;12.040;2024-02-26T11:57:29;3.67;;;1.52;;
84144;SDS011;74264;48.988;12.040;2024-02-26T12:00:14;2.05;;;1.90;;
84144;SDS011;74264;48.988;12.040;2024-02-26T12:02:50;5.38;;;1.92;;
84144;SDS011;74264;48.988;12.040;2024-02-26T12:05:24;3.00;;;1.60;;
84144;SDS011;74264;48.988;12.040;2024-02-26T12:07:55;1.80;;;1.70;;
84144;SDS011;74264;48.988;12.040;2024-02-26T12:13:11;2.33;;;1.60;;
84144;SDS011;74264;48.988;12.040;2024-02-26T12:15:39;1.98;;;1.48;;
84144;SDS011;74264;48.988;12.040;2024-02-26T12:18:07;3.58;;;1.80;;
84144;SDS011;74264;48.988;12.040;2024-02-26T12:20:36;4.80;;;1.52;;
84144;SDS011;74264;48.988;12.040;2024-02-26T12:23:02;3.10;;;1.95;;
84144;SDS011;74264;48.988;12.040;2024-02-26T12:25:32;3.00;;;1.75;;
84144;SDS011;74264;48.988;12.040;2024-02-26T12:27:59;1.75;;;1.42;;
84144;SDS011;74264;48.988;12.040;2024-02-26T12:30:25;2.05;;;1.70;;
84144;SDS011;74264;48.988;12.040;2024-02-26T12:32:52;2.45;;;1.60;;
84144;SDS011;74264;48.988;12.040;2024-02-26T12:35:22;1.75;;;1.60;;
84144;SDS011;74264;48.988;12.040;2024-02-26T12:37:49;5.35;;;1.70;;
84144;SDS011;74264;48.988;12.040;2024-02-26T12:40:16;3.08;;;1.65;;
84144;SDS011;74264;48.988;12.040;2024-02-26T12:42:42;2.60;;;1.45;;
84144;SDS011;74264;48.988;12.040;2024-02-26T12:45:09;2.03;;;1.50;;
84144;SDS011;74264;48.988;12.040;2024-02-26T12:50:03;2.72;;;1.70;;
84144;SDS011;74264;48.988;12.040;2024-02-26T12:52:31;1.83;;;1.70;;
84144;SDS011;74264;48.988;12.040;2024-02-26T12:54:58;2.80;;;1.60;;
84144;SDS011;74264;48.988;12.040;2024-02-26T12:57:24;5.57;;;1.50;;
84144;SDS011;74264;48.988;12.040;2024-02-26T12:59:50;2.70;;;1.90;;
84144;SDS011;74264;48.988;12.040;2024-02-26T13:02:16;2.28;;;1.63;;
84144;SDS011;74264;48.988;12.040;2024-02-26T13:04:42;2.67;;;1.33;;
84144;SDS011;74264;48.988;12.040;2024-02-26T13:07:09;2.13;;;1.52;;
84144;SDS011;74264;48.988;12.040;2024-02-26T13:09:35;3.28;;;1.50;;
84144;SDS011;74264;48.988;12.040;2024-02-26T13:12:03;1.48;;;1.38;;
84144;SDS011;74264;48.988;12.040;2024-02-26T13:14:29;2.97;;;1.48;;
84144;SDS011;74264;48.988;12.040;2024-02-26T13:16:57;1.40;;;1.30;;
84144;SDS011;74264;48.988;12.040;2024-02-26T13:19:23;4.80;;;1.08;;
84144;SDS011;74264;48.988;12.040;2024-02-26T13:21:49;2.08;;;1.20;;
84144;SDS011;74264;48.988;12.040;2024-02-26T13:24:15;1.88;;;1.10;;
84144;SDS011;74264;48.988;12.040;2024-02-26T13:26:41;10.50;;;1.02;;
84144;SDS011;74264;48.988;12.040;2024-02-26T13:29:07;5.57;;;1.75;;
84144;SDS011;74264;48.988;12.040;2024-02-26T13:31:39;1.30;;;1.25;;
84144;SDS011;74264;48.988;12.040;2024-02-26T13:34:07;1.67;;;1.13;;
84144;SDS011;74264;48.988;12.040;2024-02-26T13:36:33;1.40;;;1.23;;
84144;SDS011;74264;48.988;12.040;2024-02-26T13:38:58;4.90;;;1.48;;
84144;SDS011;74264;48.988;12.040;2024-02-26T13:41:25;2.00;;;1.13;;
84144;SDS011;74264;48.988;12.040;2024-02-26T13:43:51;1.55;;;0.88;;
84144;SDS011;74264;48.988;12.040;2024-02-26T13:46:17;1.10;;;0.82;;
84144;SDS011;74264;48.988;12.040;2024-02-26T13:48:42;3.72;;;0.90;;
84144;SDS011;74264;48.988;12.040;2024-02-26T13:51:08;2.72;;;0.52;;
84144;SDS011;74264;48.988;12.040;2024-02-26T13:53:35;1.05;;;0.77;;
84144;SDS011;74264;48.988;12.040;2024-02-26T13:56:00;2.25;;;0.60;;
84144;SDS011;74264;48.988;12.040;2024-02-26T13:58:26;4.82;;;0.80;;
84144;SDS011;74264;48.988;12.040;2024-02-26T14:00:53;7.95;;;0.65;;
84144;SDS011;74264;48.988;12.040;2024-02-26T14:03:19;2.00;;;0.75;;
84144;SDS011;74264;48.988;12.040;2024-02-26T14:05:45;0.70;;;0.70;;
84144;SDS011;74264;48.988;12.040;2024-02-26T14:08:11;0.77;;;0.77;;
84144;SDS011;74264;48.988;12.040;2024-02-26T14:10:38;0.70;;;0.70;;
84144;SDS011;74264;48.988;12.040;2024-02-26T14:13:03;3.10;;;0.70;;
84144;SDS011;74264;48.988;12.040;2024-02-26T14:15:29;2.15;;;0.73;;
84144;SDS011;74264;48.988;12.040;2024-02-26T14:17:55;0.73;;;0.73;;
84144;SDS011;74264;48.988;12.040;2024-02-26T14:20:21;2.05;;;0.50;;
84144;SDS011;74264;48.988;12.040;2024-02-26T14:22:48;1.02;;;0.80;;
84144;SDS011;74264;48.988;12.040;2024-02-26T14:25:20;0.80;;;0.50;;